Time;durP1;ratioP1;P1;durP2;ratioP2;P2;SDS_P1;SDS_P2;PMS_P1;PMS_P2;Temp;Humidity;BMP_temperature;BMP_pressure;BME280_temperature;BME280_humidity;BME280_pressure;Samples;Min_cycle;Max_cycle;Signal;HPM_P1;HPM_P2
2023/05/23 00:10:10;;;;;;;13.2;7.4;;;;;;;-132.3;0;77180;;;;
2023/05/23 00:20:10;;;;;;;13.2;7.4;;;;;;;-132.3;0;77200;;;;
2023/05/23 00:31:10;;;;;;;13.2;7.4;;;;;;;-132.3;0;77220;;;;
2023/05/23 00:41:10;;;;;;;10.9;6.4;;;;;;;-132.3;0;77240;;;;
2023/05/23 00:52:10;;;;;;;10.9;6.4;;;;;;;-132.3;0;77250;;;;
2023/05/23 01:03:17;;;;;;;10.9;6.4;;;;;;;-132.3;0;77260;;;;
2023/05/23 01:14:10;;;;;;;12;6.6;;;;;;;-132.3;0;77270;;;;
2023/05/23 01:25:10;;;;;;;12;6.6;;;;;;;-132.3;0;77290;;;;
2023/05/23 01:35:10;;;;;;;13.9;7.1;;;;;;;-132.3;0;77310;;;;
2023/05/23 01:45:10;;;;;;;13.9;7.1;;;;;;;-132.3;0;77320;;;;
2023/05/23 01:56:10;;;;;;;13.9;7.1;;;;;;;-132.3;0;77350;;;;
2023/05/23 02:06:10;;;;;;;13.1;7.3;;;;;;;-132.3;0;77370;;;;
2023/05/23 02:16:12;;;;;;;13.1;7.3;;;;;;;-132.3;0;77380;;;;
2023/05/23 02:26:10;;;;;;;13.1;7.3;;;;;;;-132.3;0;77400;;;;
2023/05/23 02:37:10;;;;;;;10.1;6;;;;;;;-132.3;0;77420;;;;
2023/05/23 02:48:10;;;;;;;10.1;6;;;;;;;-132.3;0;77440;;;;
2023/05/23 02:59:11;;;;;;;10.1;6;;;;;;;-132.3;0;77460;;;;
2023/05/23 03:09:10;;;;;;;10.4;6.3;;;;;;;-132.3;0;77450;;;;
2023/05/23 03:19:10;;;;;;;10.4;6.3;;;;;;;-132.3;0;77430;;;;
2023/05/23 03:30:10;;;;;;;10.4;6.3;;;;;;;-132.3;0;77420;;;;
2023/05/23 03:41:10;;;;;;;12.7;7.5;;;;;;;-132.3;0;77400;;;;
2023/05/23 03:52:10;;;;;;;12.7;7.5;;;;;;;-132.3;0;77360;;;;
2023/05/23 04:03:13;;;;;;;11.6;7.5;;;;;;;-132.3;0;77340;;;;
2023/05/23 04:14:11;;;;;;;11.6;7.5;;;;;;;-132.3;0;77290;;;;
2023/05/23 04:25:11;;;;;;;11.6;7.5;;;;;;;-132.3;0;77230;;;;
2023/05/23 04:35:11;;;;;;;15.3;9.4;;;;;;;-132.3;0;77170;;;;
2023/05/23 04:46:12;;;;;;;15.3;9.4;;;;;;;-132.3;0;77100;;;;
2023/05/23 04:57:11;;;;;;;15.3;9.4;;;;;;;-132.3;0;77030;;;;
2023/05/23 05:08:13;;;;;;;13.9;11.3;;;;;;;-132.3;0;76960;;;;
2023/05/23 05:18:10;;;;;;;13.9;11.3;;;;;;;-132.3;0;76910;;;;
2023/05/23 05:29:10;;;;;;;13.9;11.3;;;;;;;-132.3;0;76850;;;;
2023/05/23 05:40:10;;;;;;;18;12.3;;;;;;;-132.3;0;76780;;;;
2023/05/23 05:51:10;;;;;;;18;12.3;;;;;;;-132.3;0;76710;;;;
2023/05/23 06:02:11;;;;;;;18;12.3;;;;;;;-132.3;0;76640;;;;
2023/05/23 06:13:10;;;;;;;14.1;12.1;;;;;;;-132.3;0;76580;;;;
2023/05/23 06:23:11;;;;;;;14.1;12.1;;;;;;;-132.3;0;76520;;;;
2023/05/23 06:33:11;;;;;;;18.1;13.6;;;;;;;-132.3;0;76470;;;;
2023/05/23 06:44:10;;;;;;;18.1;13.6;;;;;;;-132.3;0;76430;;;;
2023/05/23 06:54:10;;;;;;;18.1;13.6;;;;;;;-132.3;0;76370;;;;
2023/05/23 07:05:10;;;;;;;14;9.3;;;;;;;-132.3;0;76310;;;;
2023/05/23 07:16:11;;;;;;;14;9.3;;;;;;;-132.3;0;76260;;;;
2023/05/23 07:27:11;;;;;;;14;9.3;;;;;;;-132.3;0;76220;;;;
2023/05/23 07:37:11;;;;;;;14.1;8.1;;;;;;;-132.3;0;76170;;;;
2023/05/23 07:48:11;;;;;;;14.1;8.1;;;;;;;-132.3;0;76110;;;;
2023/05/23 07:58:11;;;;;;;14.1;8.1;;;;;;;-132.3;0;76060;;;;
2023/05/23 08:09:11;;;;;;;10.1;6.8;;;;;;;-132.3;0;76030;;;;
2023/05/23 08:20:11;;;;;;;10.1;6.8;;;;;;;-132.3;0;75990;;;;
2023/05/23 08:30:10;;;;;;;10.1;6.8;;;;;;;-132.3;0;75930;;;;
2023/05/23 08:40:11;;;;;;;20;9;;;;;;;-132.3;0;75900;;;;
2023/05/23 08:51:11;;;;;;;20;9;;;;;;;-132.3;0;75880;;;;
2023/05/23 09:01:11;;;;;;;20;9;;;;;;;-132.3;0;75840;;;;
2023/05/23 09:12:12;;;;;;;11.5;7.3;;;;;;;-132.3;0;75770;;;;
2023/05/23 09:22:11;;;;;;;11.5;7.3;;;;;;;-132.3;0;75720;;;;
2023/05/23 09:33:11;;;;;;;14.4;8.5;;;;;;;-132.3;0;75690;;;;
2023/05/23 09:44:11;;;;;;;14.4;8.5;;;;;;;-132.3;0;75650;;;;
2023/05/23 09:55:11;;;;;;;14.4;8.5;;;;;;;-132.3;0;75560;;;;
2023/05/23 10:06:11;;;;;;;9.6;6;;;;;;;-132.3;0;75570;;;;
2023/05/23 10:17:12;;;;;;;9.6;6;;;;;;;-132.3;0;75540;;;;
2023/05/23 10:28:11;;;;;;;9.6;6;;;;;;;-132.3;0;75480;;;;
2023/05/23 10:38:12;;;;;;;14.5;6.5;;;;;;;-132.3;0;75450;;;;
2023/05/23 10:49:11;;;;;;;14.5;6.5;;;;;;;-132.3;0;75400;;;;
2023/05/23 10:59:11;;;;;;;14.5;6.5;;;;;;;-132.3;0;75380;;;;
2023/05/23 11:10:11;;;;;;;8.1;4.5;;;;;;;-132.3;0;75360;;;;
2023/05/23 11:20:11;;;;;;;8.1;4.5;;;;;;;-132.3;0;75340;;;;
2023/05/23 11:31:11;;;;;;;8.1;4.5;;;;;;;-132.3;0;75330;;;;
2023/05/23 11:41:11;;;;;;;8.9;4.5;;;;;;;-132.3;0;75280;;;;
2023/05/23 11:51:11;;;;;;;8.9;4.5;;;;;;;-132.3;0;75220;;;;
2023/05/23 12:01:11;;;;;;;8.9;4.5;;;;;;;-132.3;0;75210;;;;
2023/05/23 12:11:11;;;;;;;7.4;4.1;;;;;;;-132.3;0;75210;;;;
2023/05/23 12:22:11;;;;;;;7.4;4.1;;;;;;;-132.3;0;75190;;;;
2023/05/23 12:32:11;;;;;;;7.4;4.1;;;;;;;-132.3;0;75180;;;;
2023/05/23 12:42:11;;;;;;;10.7;4.5;;;;;;;-132.3;0;75130;;;;
2023/05/23 12:53:11;;;;;;;10.7;4.5;;;;;;;-132.3;0;75050;;;;
2023/05/23 13:04:11;;;;;;;8.6;4.5;;;;;;;-132.3;0;75010;;;;
2023/05/23 13:14:12;;;;;;;8.6;4.5;;;;;;;-132.3;0;74980;;;;
2023/05/23 13:25:11;;;;;;;8.6;4.5;;;;;;;-132.3;0;74980;;;;
2023/05/23 13:35:11;;;;;;;8.5;5;;;;;;;-132.3;0;75030;;;;
2023/05/23 13:46:11;;;;;;;8.5;5;;;;;;;-132.3;0;75030;;;;
2023/05/23 13:56:11;;;;;;;8.5;5;;;;;;;-132.3;0;75030;;;;
2023/05/23 14:07:11;;;;;;;8.8;5.1;;;;;;;-132.3;0;75040;;;;
2023/05/23 14:17:11;;;;;;;8.8;5.1;;;;;;;-132.3;0;75120;;;;
2023/05/23 14:28:11;;;;;;;8.8;5.1;;;;;;;-132.3;0;75470;;;;
2023/05/23 14:39:11;;;;;;;14.3;7;;;;;;;-132.3;0;75640;;;;
2023/05/23 14:50:11;;;;;;;14.3;7;;;;;;;-132.3;0;75700;;;;
2023/05/23 15:00:12;;;;;;;14.3;7;;;;;;;-132.3;0;75670;;;;
2023/05/23 15:11:11;;;;;;;10.6;6.5;;;;;;;-132.3;0;75660;;;;
2023/05/23 15:22:11;;;;;;;10.6;6.5;;;;;;;-132.3;0;75590;;;;
2023/05/23 15:33:11;;;;;;;10.6;6.5;;;;;;;-132.3;0;75450;;;;
2023/05/23 15:43:11;;;;;;;9.8;6.4;;;;;;;-132.3;0;75480;;;;
2023/05/23 15:54:11;;;;;;;9.8;6.4;;;;;;;-132.3;0;75550;;;;
2023/05/23 16:05:11;;;;;;;9.9;6.9;;;;;;;-132.3;0;75640;;;;
2023/05/23 16:15:11;;;;;;;9.9;6.9;;;;;;;-132.3;0;75700;;;;
2023/05/23 16:26:11;;;;;;;9.9;6.9;;;;;;;-132.3;0;75770;;;;
2023/05/23 16:37:11;;;;;;;8.6;5.5;;;;;;;-132.3;0;75820;;;;
2023/05/23 16:47:11;;;;;;;8.6;5.5;;;;;;;-132.3;0;75850;;;;
2023/05/23 16:58:11;;;;;;;8.6;5.5;;;;;;;-132.3;0;75870;;;;
2023/05/23 17:09:12;;;;;;;9.6;6.2;;;;;;;-132.3;0;75880;;;;
2023/05/23 17:19:11;;;;;;;9.6;6.2;;;;;;;-132.3;0;75900;;;;
2023/05/23 17:30:13;;;;;;;9.6;6.2;;;;;;;-132.3;0;75910;;;;
2023/05/23 17:40:11;;;;;;;22.8;12.8;;;;;;;-132.3;0;75920;;;;
2023/05/23 17:50:11;;;;;;;22.8;12.8;;;;;;;-132.3;0;75950;;;;
2023/05/23 18:01:12;;;;;;;22.8;12.8;;;;;;;-132.3;0;75980;;;;
2023/05/23 18:12:11;;;;;;;24.5;14.7;;;;;;;-132.3;0;76010;;;;
2023/05/23 18:22:11;;;;;;;24.5;14.7;;;;;;;-132.3;0;76030;;;;
2023/05/23 18:32:13;;;;;;;24.5;14.7;;;;;;;-132.3;0;76070;;;;
2023/05/23 18:42:11;;;;;;;11.4;8.3;;;;;;;-132.3;0;76110;;;;
2023/05/23 18:52:11;;;;;;;11.4;8.3;;;;;;;-132.3;0;76130;;;;
2023/05/23 19:03:11;;;;;;;11.4;8.3;;;;;;;-132.3;0;76150;;;;
2023/05/23 19:13:12;;;;;;;12.4;9.2;;;;;;;-132.3;0;76170;;;;
2023/05/23 19:23:11;;;;;;;12.4;9.2;;;;;;;-132.3;0;76190;;;;
2023/05/23 19:33:11;;;;;;;12.4;9.2;;;;;;;-132.3;0;76210;;;;
2023/05/23 19:44:12;;;;;;;13.4;9.5;;;;;;;-132.3;0;76220;;;;
2023/05/23 19:55:11;;;;;;;13.4;9.5;;;;;;;-132.3;0;76240;;;;
2023/05/23 20:06:12;;;;;;;16.5;11.8;;;;;;;-132.3;0;76250;;;;
2023/05/23 20:17:11;;;;;;;16.5;11.8;;;;;;;-132.3;0;76260;;;;
2023/05/23 20:28:11;;;;;;;16.5;11.8;;;;;;;-132.3;0;76260;;;;
2023/05/23 20:39:11;;;;;;;16.4;13.7;;;;;;;-132.3;0;76280;;;;
2023/05/23 20:49:11;;;;;;;16.4;13.7;;;;;;;-132.3;0;76290;;;;
2023/05/23 21:00:12;;;;;;;16.4;13.7;;;;;;;-132.3;0;76290;;;;
2023/05/23 21:11:11;;;;;;;20.8;16.6;;;;;;;-132.3;0;76310;;;;
2023/05/23 21:21:11;;;;;;;20.8;16.6;;;;;;;-132.3;0;76320;;;;
2023/05/23 21:32:11;;;;;;;20.8;16.6;;;;;;;-132.3;0;76330;;;;
2023/05/23 21:42:11;;;;;;;17.3;14.5;;;;;;;-132.3;0;76350;;;;
2023/05/23 21:52:11;;;;;;;17.3;14.5;;;;;;;-132.3;0;76350;;;;
2023/05/23 22:02:11;;;;;;;17.3;14.5;;;;;;;-132.3;0;76370;;;;
2023/05/23 22:13:11;;;;;;;16.6;14.2;;;;;;;-132.3;0;76380;;;;
2023/05/23 22:23:15;;;;;;;16.6;14.2;;;;;;;-132.3;0;76390;;;;
2023/05/23 22:33:11;;;;;;;16.6;14.2;;;;;;;-132.3;0;76400;;;;
2023/05/23 22:44:11;;;;;;;19.1;15.6;;;;;;;-132.3;0;76410;;;;
2023/05/23 22:54:11;;;;;;;19.1;15.6;;;;;;;-132.3;0;76420;;;;
2023/05/23 23:04:11;;;;;;;29.3;22.3;;;;;;;-132.3;0;76430;;;;
2023/05/23 23:15:11;;;;;;;29.3;22.3;;;;;;;-132.3;0;76440;;;;
2023/05/23 23:26:11;;;;;;;29.3;22.3;;;;;;;-132.3;0;76450;;;;
2023/05/23 23:37:11;;;;;;;19.6;14.2;;;;;;;-132.3;0;76460;;;;
2023/05/23 23:47:11;;;;;;;19.6;14.2;;;;;;;-132.3;0;76470;;;;
2023/05/23 23:58:11;;;;;;;19.6;14.2;;;;;;;-132.3;0;76490;;;;
